Irwin, Iowa
Current Conditions -  °F | °C
As of 3:35 AM on Thursday 27 Nov 2014 (Local Time) from KHNR Reporting Station
Scattered Clouds Scattered Clouds  
Wind Chill:   Ceiling: Unl
Heat Index: 10°   Visibility: 10mi
Dew Point:   Wind: 6mph
Humidity: 85%   Direction: 300°WNW
Pressure: 30.51"   Gusts: NA
Location:  41.79°N, 95.21°W
Report Text: KHNR 270935Z AUTO 30005KT 10SM SCT060 M12/M14 A3051 RMK AO2
Loading
Personal Weather Stations






























Interactive Weather Map New forecast layout! Learn more

10-Day Weather Forecast

Advertisements
Track Severe Weather on mobile